Time;durP1;ratioP1;P1;durP2;ratioP2;P2;SDS_P1;SDS_P2;PMS_P1;PMS_P2;Temp;Humidity;BMP_temperature;BMP_pressure;BME280_temperature;BME280_humidity;BME280_pressure;Samples;Min_cycle;Max_cycle;Signal;HPM_P1;HPM_P2
2024/04/10 00:00:14;;;;;;;4.97;1.98;;;9.50;99.90;;;;;;5165095;26;20001;-50
2024/04/10 00:02:40;;;;;;;7.43;1.95;;;9.40;99.90;;;;;;5124328;26;20036;-50
2024/04/10 00:05:07;;;;;;;2.53;1.80;;;9.40;99.90;;;;;;5146718;26;20016;-59
2024/04/10 00:07:33;;;;;;;2.50;1.60;;;9.40;99.90;;;;;;5255029;26;20005;-49
2024/04/10 00:09:59;;;;;;;3.33;1.40;;;9.40;99.90;;;;;;5195498;26;20483;-52
2024/04/10 00:12:24;;;;;;;4.03;1.55;;;9.40;99.90;;;;;;5180024;26;20000;-49
2024/04/10 00:14:50;;;;;;;4.03;1.92;;;9.30;99.90;;;;;;5132085;26;20328;-52
2024/04/10 00:17:15;;;;;;;6.25;1.67;;;9.30;99.90;;;;;;5129098;26;23618;-50
2024/04/10 00:19:41;;;;;;;3.22;1.50;;;9.30;99.90;;;;;;5254757;26;23719;-50
2024/04/10 00:22:06;;;;;;;4.88;1.77;;;9.40;99.90;;;;;;5178266;26;20074;-49
2024/04/10 00:24:32;;;;;;;6.15;1.83;;;9.40;99.90;;;;;;5156690;26;20653;-52
2024/04/10 00:26:58;;;;;;;3.30;2.00;;;9.40;99.90;;;;;;5131528;26;20020;-52
2024/04/10 00:29:23;;;;;;;7.57;2.03;;;9.40;99.90;;;;;;5189501;26;20615;-49
2024/04/10 00:31:52;;;;;;;2.20;1.63;;;9.40;99.90;;;;;;5248568;26;20367;-51
2024/04/10 00:34:18;;;;;;;2.85;1.50;;;9.40;99.90;;;;;;5148541;26;20036;-59
2024/04/10 00:36:43;;;;;;;4.47;1.98;;;9.40;99.90;;;;;;5241825;26;20552;-54
2024/04/10 00:39:09;;;;;;;3.35;2.13;;;9.50;99.90;;;;;;5167817;26;22702;-53
2024/04/10 00:41:35;;;;;;;3.33;2.00;;;9.50;99.90;;;;;;5228261;26;20016;-52
2024/04/10 00:44:01;;;;;;;5.65;1.70;;;9.50;99.90;;;;;;5122130;26;19993;-48
2024/04/10 00:46:27;;;;;;;7.85;2.20;;;9.50;99.90;;;;;;5149999;26;20021;-53
2024/04/10 00:48:53;;;;;;;8.32;2.00;;;9.50;99.90;;;;;;5205805;26;20001;-53
2024/04/10 00:51:25;;;;;;;6.78;2.33;;;9.50;99.90;;;;;;5173481;26;20012;-54
2024/04/10 00:53:53;;;;;;;5.00;2.20;;;9.50;99.90;;;;;;5149797;26;20704;-60
2024/04/10 00:56:18;;;;;;;5.28;1.55;;;9.50;99.90;;;;;;5181009;26;20009;-54
2024/04/10 00:58:44;;;;;;;3.72;1.88;;;9.50;99.90;;;;;;5133392;26;20412;-52
2024/04/10 01:01:10;;;;;;;8.23;3.00;;;9.50;99.90;;;;;;5210024;26;20005;-51
2024/04/10 01:03:38;;;;;;;6.13;2.15;;;9.50;99.90;;;;;;5168296;26;20011;-57
2024/04/10 01:06:05;;;;;;;2.47;1.85;;;9.50;99.90;;;;;;5164558;26;22854;-52
2024/04/10 01:08:33;;;;;;;6.97;2.40;;;9.50;99.90;;;;;;5236760;26;20005;-53
2024/04/10 01:11:00;;;;;;;6.30;1.63;;;9.50;99.90;;;;;;5121890;26;20005;-52
2024/04/10 01:13:27;;;;;;;3.38;1.60;;;9.50;99.90;;;;;;5122071;26;20015;-51
2024/04/10 01:15:52;;;;;;;6.78;1.88;;;9.50;99.90;;;;;;5204569;26;20009;-53
2024/04/10 01:18:18;;;;;;;3.78;2.20;;;9.50;99.90;;;;;;5162943;26;20016;-51
2024/04/10 01:20:45;;;;;;;4.30;1.92;;;9.50;99.90;;;;;;5237392;26;20001;-59
2024/04/10 01:23:11;;;;;;;4.18;2.28;;;9.40;99.90;;;;;;5170334;26;20511;-52
2024/04/10 01:25:36;;;;;;;4.78;2.00;;;9.40;99.90;;;;;;5113119;26;22556;-53
2024/04/10 01:28:02;;;;;;;5.57;2.13;;;9.40;99.90;;;;;;5223797;26;19997;-49
2024/04/10 01:30:28;;;;;;;7.93;1.80;;;9.40;99.90;;;;;;5162237;26;20013;-49
2024/04/10 01:32:53;;;;;;;5.05;2.15;;;9.40;99.90;;;;;;5107634;26;19997;-59
2024/04/10 01:35:19;;;;;;;4.65;2.22;;;9.40;99.90;;;;;;5208240;26;20020;-52
2024/04/10 01:37:45;;;;;;;4.05;2.13;;;9.40;99.90;;;;;;5127681;26;20009;-53
2024/04/10 01:40:13;;;;;;;3.85;1.77;;;9.40;99.90;;;;;;5200269;26;20001;-53
2024/04/10 01:42:44;;;;;;;4.38;1.95;;;9.40;99.90;;;;;;5133179;26;20086;-55
2024/04/10 01:45:10;;;;;;;4.38;1.83;;;9.40;99.90;;;;;;5153930;26;23113;-55
2024/04/10 01:47:35;;;;;;;5.32;2.28;;;9.40;99.90;;;;;;5210795;26;19997;-55
2024/04/10 01:50:01;;;;;;;7.65;2.13;;;9.40;99.90;;;;;;5137769;26;20720;-56
2024/04/10 01:52:26;;;;;;;7.80;2.45;;;9.40;99.90;;;;;;5126285;26;20045;-54
2024/04/10 01:54:53;;;;;;;4.10;1.65;;;9.40;99.90;;;;;;5201383;26;20008;-54
2024/04/10 01:57:18;;;;;;;4.05;2.25;;;9.40;99.90;;;;;;5153374;26;20000;-55
2024/04/10 01:59:44;;;;;;;6.80;2.42;;;9.40;99.90;;;;;;5234937;26;20012;-59
2024/04/10 02:02:10;;;;;;;3.75;2.25;;;9.50;99.90;;;;;;5122354;26;20114;-55
2024/04/10 02:04:35;;;;;;;3.00;2.28;;;9.40;99.90;;;;;;5135256;26;21680;-54
2024/04/10 02:07:01;;;;;;;8.50;2.67;;;9.40;99.90;;;;;;5201530;26;20008;-51
2024/04/10 02:09:28;;;;;;;4.18;2.08;;;9.40;99.90;;;;;;5150114;26;20001;-51
2024/04/10 02:11:54;;;;;;;3.60;2.25;;;9.50;99.90;;;;;;5109047;26;20051;-59
2024/04/10 02:14:19;;;;;;;8.23;2.60;;;9.50;99.90;;;;;;5208655;26;20005;-52
2024/04/10 02:16:46;;;;;;;9.02;2.70;;;9.50;99.90;;;;;;5139030;26;22217;-53
2024/04/10 02:19:12;;;;;;;5.10;2.08;;;9.40;99.90;;;;;;5228903;26;20020;-51
2024/04/10 02:21:38;;;;;;;5.70;2.45;;;9.40;99.90;;;;;;5114890;26;20012;-56
2024/04/10 02:24:06;;;;;;;8.27;2.85;;;9.40;99.90;;;;;;5145887;26;23161;-52
2024/04/10 02:26:32;;;;;;;4.93;2.15;;;9.40;99.90;;;;;;5200079;26;20353;-50
2024/04/10 02:28:57;;;;;;;5.90;2.35;;;9.30;99.90;;;;;;5095473;26;20082;-53
2024/04/10 02:31:23;;;;;;;8.75;2.88;;;9.30;99.90;;;;;;5140568;26;20039;-59
2024/04/10 02:33:49;;;;;;;5.63;3.00;;;9.20;99.90;;;;;;5189086;26;20492;-52
2024/04/10 02:36:14;;;;;;;6.00;2.35;;;9.10;99.90;;;;;;5140971;26;22845;-54
2024/04/10 02:38:40;;;;;;;6.43;2.50;;;9.00;99.90;;;;;;5178367;26;20016;-51
2024/04/10 02:41:07;;;;;;;5.45;2.50;;;9.00;99.90;;;;;;5130963;26;20346;-52
2024/04/10 02:43:32;;;;;;;5.05;1.90;;;8.90;99.90;;;;;;5122516;26;20005;-56
2024/04/10 02:46:00;;;;;;;5.35;2.40;;;8.90;99.90;;;;;;5296814;26;20015;-53
2024/04/10 02:48:26;;;;;;;5.63;2.53;;;8.90;99.90;;;;;;5129140;26;20020;-52
2024/04/10 02:50:53;;;;;;;2.95;2.42;;;8.80;99.90;;;;;;5079962;26;20008;-60
2024/04/10 02:53:19;;;;;;;2.65;1.73;;;8.80;99.90;;;;;;5159558;26;20013;-52
2024/04/10 02:55:47;;;;;;;6.30;2.25;;;8.70;99.90;;;;;;5088135;26;23131;-55
2024/04/10 02:58:13;;;;;;;7.25;1.75;;;8.60;99.90;;;;;;5217162;26;20048;-52
2024/04/10 03:00:56;;;;;;;5.72;1.38;;;8.60;99.90;;;;;;5079745;26;19997;-55
2024/04/10 03:03:23;;;;;;;5.10;1.60;;;8.50;99.90;;;;;;5096373;26;20008;-55
2024/04/10 03:06:05;;;;;;;3.70;1.35;;;8.50;99.90;;;;;;5192147;26;20013;-58
2024/04/10 03:08:32;;;;;;;3.78;1.40;;;8.50;99.90;;;;;;5214640;26;20048;-52
2024/04/10 03:10:58;;;;;;;2.40;1.00;;;8.40;99.90;;;;;;5103372;26;19997;-56
2024/04/10 03:13:24;;;;;;;3.90;1.35;;;8.40;99.90;;;;;;5139679;26;20007;-59
2024/04/10 03:15:50;;;;;;;5.88;1.38;;;8.30;99.90;;;;;;5189521;26;20024;-51
2024/04/10 03:18:19;;;;;;;4.40;1.65;;;8.30;99.90;;;;;;5125333;26;22324;-51
2024/04/10 03:20:45;;;;;;;3.65;1.20;;;8.30;99.90;;;;;;5205941;26;20008;-58
2024/04/10 03:23:11;;;;;;;4.30;1.55;;;8.30;99.90;;;;;;5108919;26;20064;-51
2024/04/10 03:25:37;;;;;;;4.53;0.70;;;8.30;99.90;;;;;;5078756;26;21746;-52
2024/04/10 03:28:03;;;;;;;5.22;1.90;;;8.30;99.90;;;;;;5161798;26;20005;-51
2024/04/10 03:30:29;;;;;;;3.17;1.38;;;8.20;99.90;;;;;;5120282;26;20001;-52
2024/04/10 03:32:55;;;;;;;5.63;0.93;;;8.20;99.90;;;;;;5111577;26;20037;-59
2024/04/10 03:35:21;;;;;;;1.80;0.63;;;8.20;99.90;;;;;;5117055;26;20021;-49
2024/04/10 03:37:47;;;;;;;1.45;0.70;;;8.20;99.90;;;;;;5104968;26;20954;-52
2024/04/10 03:40:12;;;;;;;2.38;0.73;;;8.20;99.90;;;;;;5187441;26;20051;-52
2024/04/10 03:42:39;;;;;;;3.30;1.00;;;8.20;99.90;;;;;;5103146;26;20005;-50
2024/04/10 03:45:04;;;;;;;4.68;1.30;;;8.20;99.90;;;;;;5113178;26;22339;-50
2024/04/10 03:47:30;;;;;;;2.22;0.98;;;8.20;99.90;;;;;;5209891;26;20001;-50
2024/04/10 03:49:56;;;;;;;3.67;1.10;;;8.20;99.90;;;;;;5012289;26;20000;-50
2024/04/10 03:52:22;;;;;;;6.50;1.30;;;8.20;99.90;;;;;;5134167;26;20113;-58
2024/04/10 03:54:48;;;;;;;1.27;0.77;;;8.20;99.90;;;;;;5099875;26;20079;-52
2024/04/10 03:57:13;;;;;;;1.70;1.05;;;8.20;99.90;;;;;;5082879;26;22767;-49
2024/04/10 03:59:39;;;;;;;3.90;1.02;;;8.20;99.90;;;;;;5151692;26;20012;-48
2024/04/10 04:02:04;;;;;;;1.67;0.80;;;8.20;99.90;;;;;;5063870;26;20449;-49
2024/04/10 04:04:30;;;;;;;4.22;1.00;;;8.20;99.90;;;;;;5258404;26;20004;-53
2024/04/10 04:06:55;;;;;;;5.07;1.55;;;8.20;99.90;;;;;;5283591;26;22115;-52
2024/04/10 04:09:21;;;;;;;1.30;0.90;;;8.20;99.90;;;;;;5327567;26;20048;-53
2024/04/10 04:11:47;;;;;;;2.75;1.33;;;8.10;99.90;;;;;;5306497;26;20001;-53
2024/04/10 04:14:12;;;;;;;3.28;1.42;;;8.10;99.90;;;;;;5300756;26;20012;-52
2024/04/10 04:16:39;;;;;;;2.92;1.00;;;8.10;99.90;;;;;;5286314;26;19998;-51
2024/04/10 04:19:05;;;;;;;4.18;1.02;;;8.20;99.90;;;;;;5274675;26;22075;-52
2024/04/10 04:21:31;;;;;;;4.97;1.05;;;8.10;99.90;;;;;;5316275;26;20016;-52
2024/04/10 04:23:58;;;;;;;3.10;0.68;;;8.20;99.90;;;;;;5295312;26;20001;-50
2024/04/10 04:26:24;;;;;;;3.60;0.93;;;8.20;99.90;;;;;;5258427;26;20446;-53
2024/04/10 04:28:51;;;;;;;2.17;0.75;;;8.20;99.90;;;;;;5289509;26;20085;-54
2024/04/10 04:31:17;;;;;;;5.30;0.82;;;8.20;99.90;;;;;;5259698;26;20008;-54
2024/04/10 04:33:43;;;;;;;3.28;0.90;;;8.20;99.90;;;;;;5268374;26;20078;-51
2024/04/10 04:36:10;;;;;;;1.77;0.68;;;8.20;99.90;;;;;;5295888;26;19997;-52
2024/04/10 04:38:38;;;;;;;4.53;1.25;;;8.20;99.90;;;;;;5292306;26;22271;-53
2024/04/10 04:41:04;;;;;;;2.95;1.00;;;8.30;99.90;;;;;;5276667;26;20009;-53
2024/04/10 04:43:30;;;;;;;3.40;0.60;;;8.30;99.90;;;;;;5271492;26;20020;-49
2024/04/10 04:45:56;;;;;;;1.90;0.70;;;8.20;99.90;;;;;;5273108;26;22328;-51
2024/04/10 04:48:22;;;;;;;2.45;1.33;;;8.20;99.90;;;;;;5304692;26;20013;-51
2024/04/10 04:50:48;;;;;;;5.65;1.13;;;8.20;99.90;;;;;;5283967;26;20532;-54
2024/04/10 04:53:15;;;;;;;9.48;2.20;;;8.20;99.90;;;;;;5303116;26;20012;-52
2024/04/10 04:55:41;;;;;;;4.15;0.95;;;8.20;99.90;;;;;;5241580;26;20001;-50
2024/04/10 04:58:07;;;;;;;5.10;1.40;;;8.20;99.90;;;;;;5276507;26;20561;-56
2024/04/10 05:00:33;;;;;;;4.47;1.40;;;8.20;99.90;;;;;;5317120;26;20000;-50
2024/04/10 05:02:59;;;;;;;3.70;1.50;;;8.20;99.90;;;;;;5277684;26;20015;-52
2024/04/10 05:05:25;;;;;;;3.47;1.33;;;8.20;99.90;;;;;;5264938;26;20492;-53
2024/04/10 05:07:51;;;;;;;4.82;1.25;;;8.20;99.90;;;;;;5281212;26;20016;-52
2024/04/10 05:10:17;;;;;;;7.43;0.85;;;8.20;99.90;;;;;;5256167;26;20523;-53
2024/04/10 05:12:43;;;;;;;5.60;1.40;;;8.20;99.90;;;;;;5280578;26;20014;-52
2024/04/10 05:15:14;;;;;;;5.47;1.25;;;8.20;99.90;;;;;;5282860;26;20082;-55
2024/04/10 05:17:40;;;;;;;9.68;1.70;;;8.20;99.90;;;;;;5226597;26;20022;-54
2024/04/10 05:20:14;;;;;;;8.80;1.50;;;8.20;99.90;;;;;;5273653;26;20005;-56
2024/04/10 05:22:41;;;;;;;3.72;1.42;;;8.20;99.90;;;;;;5268634;26;20005;-54
2024/04/10 05:25:07;;;;;;;5.95;1.85;;;8.20;99.90;;;;;;5253976;26;22787;-54
2024/04/10 05:27:33;;;;;;;5.10;1.85;;;8.20;99.90;;;;;;5307937;26;20001;-56
2024/04/10 05:30:00;;;;;;;4.30;1.35;;;8.20;99.90;;;;;;5240464;26;19997;-53
2024/04/10 05:32:29;;;;;;;4.43;1.40;;;8.20;99.90;;;;;;5267884;26;20004;-55
2024/04/10 05:34:55;;;;;;;7.55;1.35;;;8.20;99.90;;;;;;5245992;26;20022;-54
2024/04/10 05:37:22;;;;;;;4.50;1.38;;;8.20;99.90;;;;;;5259932;26;20826;-55
2024/04/10 05:40:05;;;;;;;4.60;0.88;;;8.20;99.90;;;;;;5260583;26;19997;-60
2024/04/10 05:42:33;;;;;;;6.75;1.70;;;8.30;99.90;;;;;;5301330;26;20041;-53
2024/04/10 05:44:58;;;;;;;3.97;0.77;;;8.30;99.90;;;;;;5234862;26;20010;-54
2024/04/10 05:47:24;;;;;;;4.20;1.20;;;8.20;99.90;;;;;;5219075;26;20009;-53
2024/04/10 05:49:49;;;;;;;3.83;1.02;;;8.20;99.90;;;;;;5282465;26;20595;-55
2024/04/10 05:52:15;;;;;;;4.53;1.10;;;8.20;99.90;;;;;;5253316;26;20001;-52
2024/04/10 05:54:41;;;;;;;9.18;1.67;;;8.20;99.90;;;;;;5286573;26;20001;-55
2024/04/10 05:57:07;;;;;;;5.25;1.10;;;8.20;99.90;;;;;;5266867;26;20001;-56
2024/04/10 05:59:32;;;;;;;7.95;1.30;;;8.20;99.90;;;;;;5226314;26;20011;-55
2024/04/10 06:01:58;;;;;;;7.25;1.92;;;8.20;99.90;;;;;;5292924;26;20411;-55
2024/04/10 06:04:23;;;;;;;6.75;1.40;;;8.20;99.90;;;;;;5202505;26;20005;-52
2024/04/10 06:06:49;;;;;;;5.93;1.33;;;8.20;99.90;;;;;;5233856;26;20013;-60
2024/04/10 06:09:14;;;;;;;9.27;1.77;;;8.30;99.90;;;;;;5261224;26;20077;-55
2024/04/10 06:11:40;;;;;;;11.93;2.17;;;8.40;99.90;;;;;;5238314;26;20005;-57
2024/04/10 06:14:05;;;;;;;5.90;1.45;;;8.40;99.90;;;;;;5280373;26;20071;-54
2024/04/10 06:16:31;;;;;;;8.38;1.23;;;8.50;99.90;;;;;;5227329;26;20008;-54
2024/04/10 06:18:56;;;;;;;8.10;1.55;;;8.50;99.90;;;;;;5233383;26;22184;-55
2024/04/10 06:21:22;;;;;;;4.05;1.30;;;8.50;99.90;;;;;;5296243;26;20024;-52
2024/04/10 06:23:48;;;;;;;5.78;1.42;;;8.50;99.90;;;;;;5253517;26;20024;-55
2024/04/10 06:26:13;;;;;;;5.63;1.35;;;8.50;99.90;;;;;;5277902;26;20075;-52
2024/04/10 06:28:39;;;;;;;4.35;1.00;;;8.50;99.90;;;;;;5236059;26;20011;-54
2024/04/10 06:31:06;;;;;;;5.72;1.10;;;8.50;99.90;;;;;;5227157;26;20907;-55
2024/04/10 06:33:32;;;;;;;6.47;1.85;;;8.40;99.90;;;;;;5295839;26;20307;-52
2024/04/10 06:35:59;;;;;;;6.03;1.35;;;8.50;99.90;;;;;;5225093;26;20016;-55
2024/04/10 06:38:25;;;;;;;6.97;1.42;;;8.50;99.90;;;;;;5230905;26;20017;-54
2024/04/10 06:40:55;;;;;;;8.55;1.20;;;8.60;99.90;;;;;;5279259;26;20093;-55
2024/04/10 06:43:21;;;;;;;6.65;1.15;;;8.60;99.90;;;;;;5212572;26;20001;-55
2024/04/10 06:46:09;;;;;;;5.95;1.60;;;8.60;99.90;;;;;;5266244;26;20068;-59
2024/04/10 06:48:35;;;;;;;4.97;1.88;;;8.70;99.90;;;;;;5284693;26;20074;-61
2024/04/10 06:51:03;;;;;;;4.40;1.45;;;8.70;99.90;;;;;;5245680;26;20020;-53
2024/04/10 06:53:29;;;;;;;5.95;1.58;;;8.60;99.90;;;;;;5178020;26;21092;-54
2024/04/10 06:55:57;;;;;;;6.75;1.55;;;8.60;99.90;;;;;;5228041;26;20473;-53
2024/04/10 06:58:24;;;;;;;3.92;1.33;;;8.60;99.90;;;;;;5192754;26;20705;-53
2024/04/10 07:01:02;;;;;;;3.90;1.60;;;8.50;99.90;;;;;;5186145;26;20005;-59
2024/04/10 07:03:32;;;;;;;5.90;1.80;;;8.50;99.90;;;;;;5289020;26;20012;-56
2024/04/10 07:06:05;;;;;;;6.38;1.88;;;8.60;99.90;;;;;;5219119;26;20806;-50
2024/04/10 07:08:32;;;;;;;7.05;2.40;;;8.60;99.90;;;;;;5205337;26;19997;-51
2024/04/10 07:10:58;;;;;;;6.03;1.65;;;8.70;99.90;;;;;;5232082;26;20000;-53
2024/04/10 07:13:24;;;;;;;6.40;1.83;;;8.80;99.90;;;;;;5231045;26;19998;-50
2024/04/10 07:15:59;;;;;;;7.45;1.58;;;8.90;99.90;;;;;;5238321;26;20321;-59
2024/04/10 07:18:27;;;;;;;6.00;1.58;;;8.90;99.90;;;;;;5283327;26;19997;-53
2024/04/10 07:21:03;;;;;;;10.85;1.90;;;8.90;99.90;;;;;;5225794;26;20023;-54
2024/04/10 07:23:30;;;;;;;;;;;8.90;99.90;;;;;;5216120;26;20009;-49
2024/04/10 07:26:22;;;;;;;3.45;1.33;;;8.90;99.90;;;;;;5219908;26;20215;-49
2024/04/10 07:28:53;;;;;;;8.60;1.85;;;8.90;99.90;;;;;;5274529;26;20012;-53
2024/04/10 07:31:33;;;;;;;10.23;1.90;;;8.80;99.90;;;;;;5223628;26;20509;-54
2024/04/10 07:34:00;;;;;;;8.20;1.80;;;8.80;99.90;;;;;;5204848;26;19997;-52
2024/04/10 07:36:26;;;;;;;5.68;1.10;;;8.80;99.90;;;;;;5274170;26;20563;-52
2024/04/10 07:38:56;;;;;;;6.38;1.70;;;8.80;99.90;;;;;;5219407;26;20090;-54
2024/04/10 07:41:22;;;;;;;9.57;1.90;;;8.90;99.90;;;;;;5220906;26;20000;-54
2024/04/10 07:43:49;;;;;;;4.72;1.83;;;8.90;99.90;;;;;;5265674;26;20095;-55
2024/04/10 07:46:19;;;;;;;8.02;2.17;;;9.00;99.90;;;;;;5225682;26;20022;-51
2024/04/10 07:48:52;;;;;;;5.90;1.38;;;9.20;99.90;;;;;;5268074;26;19996;-59
2024/04/10 07:51:19;;;;;;;8.07;2.03;;;9.20;99.90;;;;;;5266709;26;20012;-51
2024/04/10 07:55:18;;;;;;;6.47;1.95;;;9.30;99.90;;;;;;5401949;25;20444;-48
2024/04/10 07:57:44;;;;;;;5.78;1.30;;;9.40;99.90;;;;;;5419060;26;20006;-50
2024/04/10 08:00:11;;;;;;;5.45;2.28;;;9.50;99.90;;;;;;5361798;26;20002;-51
2024/04/10 08:02:36;;;;;;;9.30;2.00;;;9.50;99.90;;;;;;5345548;26;22046;-51
2024/04/10 08:05:02;;;;;;;5.90;1.50;;;9.70;99.90;;;;;;5391321;26;20010;-48
2024/04/10 08:07:28;;;;;;;7.00;1.75;;;9.70;99.90;;;;;;5344061;26;20074;-51
2024/04/10 08:09:53;;;;;;;4.75;1.10;;;9.80;99.90;;;;;;5318589;26;20010;-50
2024/04/10 08:12:19;;;;;;;6.97;1.65;;;9.90;99.90;;;;;;5382628;26;20006;-54
2024/04/10 08:14:45;;;;;;;7.18;1.55;;;10.00;99.90;;;;;;5329087;26;20017;-55
2024/04/10 08:17:11;;;;;;;3.78;1.50;;;10.10;99.90;;;;;;5380467;26;20051;-52
2024/04/10 08:19:38;;;;;;;6.05;2.17;;;10.20;99.90;;;;;;5314981;26;19999;-58
2024/04/10 08:22:07;;;;;;;8.30;2.13;;;10.30;99.90;;;;;;5331101;26;19994;-53
2024/04/10 08:24:32;;;;;;;8.13;2.03;;;10.30;99.90;;;;;;5373295;26;20473;-49
2024/04/10 08:27:02;;;;;;;5.85;1.80;;;10.30;99.90;;;;;;5309134;26;19990;-53
2024/04/10 08:29:28;;;;;;;7.00;1.10;;;10.40;99.90;;;;;;5303653;26;20461;-53
2024/04/10 08:31:54;;;;;;;8.13;1.65;;;10.40;99.90;;;;;;5391249;26;19995;-54
2024/04/10 08:34:19;;;;;;;6.07;1.25;;;10.40;99.90;;;;;;5324354;26;20017;-52
2024/04/10 08:36:45;;;;;;;6.97;1.67;;;10.50;99.90;;;;;;5377825;26;20005;-58
2024/04/10 08:39:11;;;;;;;7.43;1.63;;;10.40;99.90;;;;;;5306333;26;20070;-51
2024/04/10 08:41:39;;;;;;;4.90;1.35;;;10.50;99.90;;;;;;5325985;26;23521;-49
2024/04/10 08:44:06;;;;;;;3.15;1.63;;;10.50;99.90;;;;;;5360767;26;20017;-48
2024/04/10 08:46:34;;;;;;;4.47;1.33;;;10.50;99.90;;;;;;5320153;26;19999;-50
2024/04/10 08:49:01;;;;;;;5.32;1.33;;;10.60;99.90;;;;;;5291811;26;20327;-50
2024/04/10 08:51:28;;;;;;;6.40;1.27;;;10.70;99.90;;;;;;5380836;26;20033;-54
2024/04/10 08:53:55;;;;;;;6.80;1.67;;;10.80;99.90;;;;;;5302986;26;20007;-52
2024/04/10 08:56:21;;;;;;;6.20;1.08;;;10.90;99.90;;;;;;5312165;26;20098;-57
2024/04/10 08:58:47;;;;;;;8.02;1.90;;;11.00;99.90;;;;;;5362129;26;20006;-51
2024/04/10 09:01:27;;;;;;;9.13;1.98;;;11.00;99.90;;;;;;5312666;26;22558;-51
2024/04/10 09:03:53;;;;;;;6.00;1.63;;;11.30;99.90;;;;;;5327848;26;20342;-58
2024/04/10 09:06:20;;;;;;;3.58;1.00;;;11.50;99.90;;;;;;5350694;26;20039;-49
2024/04/10 09:08:56;;;;;;;5.15;1.70;;;11.70;99.90;;;;;;5287947;26;20002;-50
2024/04/10 09:11:22;;;;;;;3.40;1.50;;;11.90;99.90;;;;;;5270563;26;20010;-57
2024/04/10 09:13:59;;;;;;;3.35;1.80;;;11.90;99.90;;;;;;5324864;26;20010;-56
2024/04/10 09:16:25;;;;;;;9.80;1.70;;;11.90;99.90;;;;;;5314798;26;20060;-48
2024/04/10 09:18:51;;;;;;;5.22;1.88;;;11.80;99.90;;;;;;5299201;26;19995;-58
2024/04/10 09:21:17;;;;;;;8.32;2.13;;;11.90;99.90;;;;;;5354743;26;20000;-51
2024/04/10 09:23:43;;;;;;;6.85;2.13;;;12.10;99.90;;;;;;5274297;26;20006;-51
2024/04/10 09:26:16;;;;;;;7.40;2.20;;;12.30;99.90;;;;;;5358716;26;20018;-53
2024/04/10 09:28:42;;;;;;;5.65;1.55;;;12.40;99.90;;;;;;5331939;26;19998;-53
2024/04/10 09:31:16;;;;;;;6.60;2.22;;;12.60;99.90;;;;;;5312940;26;22649;-53
2024/04/10 09:33:44;;;;;;;5.85;1.63;;;13.00;99.90;;;;;;5342436;26;19995;-52
2024/04/10 09:36:11;;;;;;;9.40;2.33;;;13.10;99.90;;;;;;5297957;26;20078;-48
2024/04/10 09:38:37;;;;;;;5.63;1.88;;;13.00;99.90;;;;;;5300965;26;22877;-51
2024/04/10 09:41:03;;;;;;;6.65;1.20;;;12.90;99.90;;;;;;5350975;26;20031;-50
2024/04/10 09:43:31;;;;;;;9.27;2.13;;;12.80;99.90;;;;;;5318192;26;20075;-49
2024/04/10 09:46:03;;;;;;;5.20;1.40;;;12.70;99.90;;;;;;5237341;26;20007;-51
2024/04/10 09:48:33;;;;;;;6.15;1.55;;;12.70;99.90;;;;;;5389383;26;20409;-53
2024/04/10 09:51:04;;;;;;;8.43;2.20;;;12.50;99.90;;;;;;5293681;26;20056;-53
2024/04/10 09:53:35;;;;;;;4.85;1.50;;;12.70;99.90;;;;;;5269490;26;19999;-50
2024/04/10 09:56:05;;;;;;;2.70;0.88;;;12.90;99.90;;;;;;5339256;26;19995;-51
2024/04/10 09:58:35;;;;;;;6.57;1.65;;;13.00;99.90;;;;;;5297733;26;20352;-52
2024/04/10 10:01:04;;;;;;;5.00;1.02;;;12.90;99.90;;;;;;5304920;26;20002;-51
2024/04/10 10:03:30;;;;;;;6.57;1.40;;;12.90;99.90;;;;;;5349961;26;20337;-49
2024/04/10 10:06:04;;;;;;;4.25;1.40;;;12.90;99.90;;;;;;5282964;26;20007;-50
2024/04/10 10:08:30;;;;;;;5.35;1.85;;;13.00;99.90;;;;;;5368712;26;20006;-48
2024/04/10 10:10:57;;;;;;;2.53;1.30;;;13.30;99.90;;;;;;5335899;26;24541;-49
2024/04/10 10:13:29;;;;;;;5.38;1.85;;;13.50;99.90;;;;;;5296657;26;19996;-55
2024/04/10 10:16:00;;;;;;;4.15;1.50;;;13.70;99.90;;;;;;5252038;26;20003;-59
2024/04/10 10:18:27;;;;;;;7.40;1.65;;;13.90;99.90;;;;;;5391752;26;19994;-55
2024/04/10 10:21:05;;;;;;;2.20;1.17;;;14.00;99.90;;;;;;5301030;26;20542;-52
2024/04/10 10:23:32;;;;;;;9.70;1.73;;;13.90;99.90;;;;;;5259469;26;20009;-50
2024/04/10 10:25:57;;;;;;;8.93;1.95;;;13.60;99.90;;;;;;5325876;26;20011;-53
2024/04/10 10:28:23;;;;;;;4.03;1.63;;;13.20;99.90;;;;;;5289830;26;20130;-54
2024/04/10 10:30:49;;;;;;;5.10;1.48;;;13.00;99.90;;;;;;5314622;26;20097;-59
2024/04/10 10:33:21;;;;;;;6.00;1.25;;;12.90;99.90;;;;;;5298530;26;20450;-56
2024/04/10 10:35:46;;;;;;;4.50;1.23;;;12.70;99.90;;;;;;5249613;26;20010;-52
2024/04/10 10:38:12;;;;;;;5.47;1.58;;;12.60;99.90;;;;;;5334350;26;19999;-53
2024/04/10 10:40:38;;;;;;;6.05;1.05;;;12.50;99.90;;;;;;5280084;26;20014;-54
2024/04/10 10:43:05;;;;;;;3.92;2.03;;;12.50;99.90;;;;;;5248970;26;20002;-51
2024/04/10 10:45:31;;;;;;;4.85;1.60;;;12.60;99.90;;;;;;5376115;26;20076;-52
2024/04/10 10:47:59;;;;;;;5.63;1.23;;;12.70;99.90;;;;;;5218931;26;19994;-53
2024/04/10 10:50:24;;;;;;;4.80;1.50;;;12.70;99.90;;;;;;5264724;26;20074;-48
2024/04/10 10:52:50;;;;;;;7.32;2.08;;;12.80;99.90;;;;;;5337168;26;20025;-50
2024/04/10 10:55:16;;;;;;;4.13;1.30;;;12.80;99.90;;;;;;5296214;26;21437;-50
2024/04/10 10:57:42;;;;;;;6.80;2.05;;;12.80;99.90;;;;;;5361832;26;20006;-49
2024/04/10 11:00:16;;;;;;;5.35;1.90;;;12.90;99.90;;;;;;5239124;26;20010;-53
2024/04/10 11:02:45;;;;;;;4.78;1.48;;;12.90;99.90;;;;;;5267551;26;20779;-53
2024/04/10 11:05:15;;;;;;;4.80;1.55;;;12.90;99.90;;;;;;5388570;26;20009;-52
2024/04/10 11:07:41;;;;;;;4.95;1.63;;;12.90;99.90;;;;;;5245100;26;20031;-53
2024/04/10 11:10:11;;;;;;;6.88;1.42;;;13.00;99.90;;;;;;5295253;26;22836;-51
2024/04/10 11:12:37;;;;;;;4.53;1.58;;;13.10;99.90;;;;;;5365242;26;19995;-51
2024/04/10 11:15:10;;;;;;;5.40;1.25;;;13.40;99.90;;;;;;5255189;26;20461;-50
2024/04/10 11:17:37;;;;;;;4.90;1.33;;;13.50;99.90;;;;;;5286801;26;23673;-51
2024/04/10 11:20:10;;;;;;;4.68;1.60;;;13.70;99.90;;;;;;5296462;26;19998;-50
2024/04/10 11:22:37;;;;;;;5.32;1.48;;;13.70;99.90;;;;;;5295440;26;20502;-60
2024/04/10 11:25:03;;;;;;;5.32;1.70;;;13.70;99.90;;;;;;5283988;26;20037;-49
2024/04/10 11:27:29;;;;;;;7.53;1.52;;;13.70;99.90;;;;;;5317092;26;19991;-51
2024/04/10 11:29:55;;;;;;;6.03;1.27;;;13.80;99.90;;;;;;5224440;26;20128;-56
2024/04/10 11:32:20;;;;;;;5.25;1.40;;;13.80;99.90;;;;;;5256699;26;20352;-55
2024/04/10 11:34:46;;;;;;;4.45;1.23;;;13.70;99.90;;;;;;5312460;26;20459;-55
2024/04/10 11:37:12;;;;;;;3.17;1.45;;;13.60;99.90;;;;;;5255760;26;23157;-50
2024/04/10 11:39:38;;;;;;;5.32;1.70;;;13.40;99.90;;;;;;5298380;26;20075;-54
2024/04/10 11:42:04;;;;;;;4.88;1.48;;;13.20;99.90;;;;;;5225121;26;20723;-49
2024/04/10 11:44:29;;;;;;;5.13;2.00;;;13.10;99.90;;;;;;5236111;26;19999;-50
2024/04/10 11:46:55;;;;;;;8.95;1.52;;;13.10;99.90;;;;;;5315522;26;22620;-54
2024/04/10 11:49:24;;;;;;;9.52;2.08;;;13.30;99.90;;;;;;5236020;26;19995;-54
2024/04/10 11:51:50;;;;;;;6.47;1.40;;;13.50;99.90;;;;;;5262565;26;20002;-58
2024/04/10 11:54:17;;;;;;;6.13;2.17;;;13.40;99.90;;;;;;5269277;26;19999;-54
2024/04/10 11:56:42;;;;;;;8.95;1.73;;;13.40;99.90;;;;;;5265424;26;20662;-51
2024/04/10 11:59:08;;;;;;;8.07;2.13;;;13.40;99.90;;;;;;5314630;26;20050;-53
2024/04/10 12:01:34;;;;;;;5.10;1.42;;;13.50;99.90;;;;;;5259299;26;19994;-53
2024/04/10 12:03:59;;;;;;;7.13;2.08;;;13.50;99.90;;;;;;5254567;26;19999;-55
2024/04/10 12:06:25;;;;;;;5.53;1.50;;;13.50;99.90;;;;;;5336113;26;20332;-53
2024/04/10 12:08:51;;;;;;;5.85;1.55;;;13.60;99.90;;;;;;5201611;26;20077;-51
2024/04/10 12:11:17;;;;;;;6.60;1.88;;;13.60;99.90;;;;;;5308309;26;20013;-60
2024/04/10 12:13:42;;;;;;;4.10;1.75;;;13.60;99.90;;;;;;5217595;26;20010;-51
2024/04/10 12:16:08;;;;;;;3.40;1.10;;;13.80;99.90;;;;;;5208308;26;22984;-50
2024/04/10 12:18:34;;;;;;;4.85;1.98;;;14.00;99.90;;;;;;5384620;26;20343;-50
2024/04/10 12:20:59;;;;;;;6.68;1.73;;;14.30;99.90;;;;;;5186258;26;20357;-50
2024/04/10 12:23:25;;;;;;;6.47;2.42;;;14.30;99.90;;;;;;5250662;26;19995;-51
2024/04/10 12:25:51;;;;;;;7.22;2.17;;;14.10;99.90;;;;;;5311748;26;20015;-53
2024/04/10 12:28:17;;;;;;;6.13;2.25;;;14.10;99.90;;;;;;5289488;26;23300;-50
2024/04/10 12:30:42;;;;;;;5.38;1.60;;;13.90;99.90;;;;;;5402050;26;20010;-54
2024/04/10 12:33:08;;;;;;;3.03;1.38;;;13.60;99.90;;;;;;5417656;26;19998;-48
2024/04/10 12:38:19;;;;;;;5.65;1.67;;;13.30;99.90;;;;;;5364923;26;20014;-51
2024/04/10 12:40:54;;;;;;;4.43;1.50;;;13.40;99.90;;;;;;5371634;26;20002;-58
2024/04/10 12:43:20;;;;;;;2.57;1.43;;;13.50;99.90;;;;;;5431293;26;19995;-54
2024/04/10 12:45:46;;;;;;;3.50;1.45;;;13.50;99.90;;;;;;5380684;26;20772;-52
2024/04/10 12:48:12;;;;;;;4.05;1.55;;;13.40;99.90;;;;;;5347093;26;20002;-51
2024/04/10 12:50:39;;;;;;;4.70;1.30;;;13.40;99.90;;;;;;5392288;26;20002;-51
2024/04/10 12:53:04;;;;;;;4.13;1.20;;;13.40;99.90;;;;;;5388667;26;19999;-55
2024/04/10 12:55:30;;;;;;;4.22;1.15;;;13.40;99.90;;;;;;5415947;26;20589;-51